Time;durP1;ratioP1;P1;durP2;ratioP2;P2;SDS_P1;SDS_P2;PMS_P1;PMS_P2;Temp;Humidity;BMP_temperature;BMP_pressure;BME280_temperature;BME280_humidity;BME280_pressure;Samples;Min_cycle;Max_cycle;Signal;HPM_P1;HPM_P2
2022/07/07 00:01:46;;;;;;;1.67;0.88;;;17.70;50.10;;;;;;5019618;28;20064;-73
2022/07/07 00:04:12;;;;;;;1.48;0.98;;;17.70;50.20;;;;;;4998680;28;20071;-73
2022/07/07 00:06:37;;;;;;;3.40;1.00;;;17.70;50.10;;;;;;5004718;28;20522;-73
2022/07/07 00:09:03;;;;;;;1.63;1.20;;;17.70;50.10;;;;;;5025232;28;20029;-74
2022/07/07 00:11:28;;;;;;;4.38;1.30;;;17.70;50.30;;;;;;5007472;28;20071;-74
2022/07/07 00:13:54;;;;;;;1.65;1.27;;;17.70;50.30;;;;;;5009456;28;20021;-74
2022/07/07 00:16:19;;;;;;;1.45;0.90;;;17.60;50.50;;;;;;4997469;28;20060;-73
2022/07/07 00:18:45;;;;;;;6.32;1.15;;;17.60;50.50;;;;;;5036688;28;20107;-73
2022/07/07 00:21:11;;;;;;;1.10;0.90;;;17.60;50.50;;;;;;5041081;28;20087;-73
2022/07/07 00:23:36;;;;;;;2.45;1.15;;;17.70;50.60;;;;;;5016008;28;20029;-73
2022/07/07 00:26:02;;;;;;;1.58;1.20;;;17.60;50.60;;;;;;5009948;28;20533;-72
2022/07/07 00:28:28;;;;;;;2.90;1.25;;;17.60;50.60;;;;;;4997177;28;20038;-72
2022/07/07 00:30:53;;;;;;;1.70;1.23;;;17.60;50.70;;;;;;5007128;28;20044;-73
2022/07/07 00:33:19;;;;;;;1.55;1.10;;;17.60;50.90;;;;;;5005761;28;20587;-73
2022/07/07 00:35:44;;;;;;;1.73;1.00;;;17.60;50.90;;;;;;5025893;28;20037;-72
2022/07/07 00:38:10;;;;;;;2.08;0.80;;;17.60;50.90;;;;;;5028837;28;20033;-73
2022/07/07 00:40:36;;;;;;;1.17;1.05;;;17.60;51.00;;;;;;5008011;28;20047;-72
2022/07/07 00:43:02;;;;;;;2.75;1.40;;;17.60;51.00;;;;;;5019851;28;20127;-72
2022/07/07 00:45:27;;;;;;;1.67;1.00;;;17.60;51.10;;;;;;5024240;28;20135;-72
2022/07/07 00:47:53;;;;;;;1.48;1.00;;;17.60;51.20;;;;;;5005714;28;20583;-72
2022/07/07 00:50:18;;;;;;;3.47;1.00;;;17.50;51.10;;;;;;5030779;28;20124;-72
2022/07/07 00:52:45;;;;;;;2.33;1.30;;;17.50;51.20;;;;;;5003309;28;20056;-72
2022/07/07 00:55:10;;;;;;;2.80;1.35;;;17.50;51.30;;;;;;5000339;28;20053;-73
2022/07/07 00:57:36;;;;;;;1.38;1.00;;;17.50;51.40;;;;;;5008837;28;20064;-73
2022/07/07 01:00:07;;;;;;;1.10;1.00;;;17.50;51.60;;;;;;5006561;28;20504;-76
2022/07/07 01:02:32;;;;;;;2.70;1.10;;;17.50;51.70;;;;;;5021134;28;20041;-72
2022/07/07 01:04:59;;;;;;;2.10;1.15;;;17.50;51.60;;;;;;5008861;28;22013;-72
2022/07/07 01:07:25;;;;;;;1.92;1.20;;;17.50;51.60;;;;;;4988540;28;20124;-73
2022/07/07 01:09:50;;;;;;;4.15;1.30;;;17.50;51.80;;;;;;4996952;28;20413;-72
2022/07/07 01:12:16;;;;;;;1.92;1.20;;;17.40;51.80;;;;;;5021623;28;20497;-72
2022/07/07 01:14:41;;;;;;;1.38;0.90;;;17.50;51.80;;;;;;5021055;28;20037;-73
2022/07/07 01:17:07;;;;;;;1.95;1.10;;;17.50;51.80;;;;;;5020961;28;20777;-74
2022/07/07 01:19:32;;;;;;;3.08;1.25;;;17.50;51.90;;;;;;4982940;28;20563;-73
2022/07/07 01:22:03;;;;;;;3.83;1.02;;;17.40;52.00;;;;;;5013030;28;21858;-74
2022/07/07 01:24:29;;;;;;;2.55;1.17;;;17.40;52.00;;;;;;4997157;28;20029;-75
2022/07/07 01:27:12;;;;;;;1.08;1.00;;;17.40;52.00;;;;;;5011922;28;20048;-73
2022/07/07 01:29:39;;;;;;;1.70;0.98;;;17.40;52.40;;;;;;5008626;28;20080;-73
2022/07/07 01:32:05;;;;;;;2.97;1.30;;;17.40;52.20;;;;;;5038614;28;20025;-73
2022/07/07 01:34:31;;;;;;;1.85;0.98;;;17.40;52.10;;;;;;5011677;28;20043;-73
2022/07/07 01:36:56;;;;;;;2.08;1.05;;;17.40;52.20;;;;;;5003092;28;20029;-73
2022/07/07 01:39:22;;;;;;;3.03;1.00;;;17.40;52.30;;;;;;5007149;28;20069;-74
2022/07/07 01:41:47;;;;;;;1.95;1.02;;;17.40;52.30;;;;;;5019145;28;20099;-73
2022/07/07 01:44:13;;;;;;;3.75;1.10;;;17.40;52.40;;;;;;5027600;28;20112;-74
2022/07/07 01:46:38;;;;;;;0.82;0.82;;;17.40;52.40;;;;;;5053987;28;20052;-73
2022/07/07 01:49:04;;;;;;;2.00;1.05;;;17.40;52.50;;;;;;5047965;28;20036;-73
2022/07/07 01:51:29;;;;;;;1.48;1.13;;;17.40;52.60;;;;;;5035063;28;20032;-73
2022/07/07 01:53:55;;;;;;;1.40;1.00;;;17.40;52.70;;;;;;5027790;28;20045;-73
2022/07/07 01:56:20;;;;;;;2.30;0.93;;;17.40;52.70;;;;;;5034226;28;20036;-73
2022/07/07 01:58:46;;;;;;;4.80;1.20;;;17.30;52.80;;;;;;5045660;28;20060;-74
2022/07/07 02:01:12;;;;;;;2.15;1.13;;;17.40;52.90;;;;;;5007924;28;20427;-73
2022/07/07 02:03:37;;;;;;;4.03;1.27;;;17.40;53.00;;;;;;5017311;28;20083;-73
2022/07/07 02:06:03;;;;;;;3.70;1.00;;;17.30;53.10;;;;;;5048682;28;20032;-73
2022/07/07 02:08:28;;;;;;;3.40;1.13;;;17.40;53.20;;;;;;5039780;28;20044;-73
2022/07/07 02:11:12;;;;;;;2.80;1.20;;;17.40;53.30;;;;;;5029586;28;20082;-73
2022/07/07 02:13:39;;;;;;;0.80;0.80;;;17.40;53.30;;;;;;5050918;28;20045;-73
2022/07/07 02:16:05;;;;;;;1.58;1.00;;;17.30;53.30;;;;;;5029510;28;20057;-73
2022/07/07 02:18:33;;;;;;;2.13;1.00;;;17.30;53.40;;;;;;5029447;28;20469;-73
2022/07/07 02:20:59;;;;;;;3.08;0.93;;;17.30;53.50;;;;;;5037428;28;20043;-73
2022/07/07 02:23:25;;;;;;;1.00;0.90;;;17.30;53.40;;;;;;5030136;28;20463;-73
2022/07/07 02:25:51;;;;;;;1.50;1.00;;;17.30;53.40;;;;;;5028057;28;20469;-73
2022/07/07 02:28:16;;;;;;;2.80;1.23;;;17.30;53.60;;;;;;5048372;28;20033;-73
2022/07/07 02:30:42;;;;;;;2.75;0.95;;;17.30;53.60;;;;;;5039646;28;20047;-72
2022/07/07 02:33:08;;;;;;;3.33;1.00;;;17.30;53.70;;;;;;5042532;28;20033;-74
2022/07/07 02:35:34;;;;;;;0.95;0.85;;;17.20;53.70;;;;;;5045716;28;20029;-73
2022/07/07 02:38:00;;;;;;;1.00;0.90;;;17.20;53.70;;;;;;5047341;28;20086;-74
2022/07/07 02:40:25;;;;;;;3.20;1.15;;;17.20;53.80;;;;;;5044156;28;20055;-73
2022/07/07 02:42:51;;;;;;;1.35;1.00;;;17.20;53.80;;;;;;5049843;28;20036;-72
2022/07/07 02:45:17;;;;;;;1.10;1.02;;;17.20;53.80;;;;;;5038090;28;20044;-73
2022/07/07 02:47:42;;;;;;;2.20;0.82;;;17.20;54.60;;;;;;5037494;28;20132;-73
2022/07/07 02:50:09;;;;;;;1.33;1.00;;;17.20;54.00;;;;;;5062225;28;20044;-73
2022/07/07 02:52:34;;;;;;;1.08;0.90;;;17.20;54.00;;;;;;5041887;28;20083;-74
2022/07/07 02:55:00;;;;;;;3.30;1.15;;;17.20;54.00;;;;;;5048718;28;20406;-73
2022/07/07 02:57:25;;;;;;;0.95;0.90;;;17.20;54.10;;;;;;5052394;28;20036;-73
2022/07/07 02:59:51;;;;;;;2.70;0.98;;;17.20;54.10;;;;;;5039828;28;20377;-73
2022/07/07 03:02:16;;;;;;;1.30;1.20;;;17.20;54.10;;;;;;5050866;28;20051;-72
2022/07/07 03:04:42;;;;;;;0.93;0.85;;;17.20;54.20;;;;;;5046652;28;20025;-72
2022/07/07 03:07:08;;;;;;;4.72;1.50;;;17.20;54.20;;;;;;5046567;28;20113;-73
2022/07/07 03:09:33;;;;;;;3.80;1.10;;;17.20;54.30;;;;;;5036990;28;20036;-73
2022/07/07 03:11:59;;;;;;;1.88;1.02;;;17.20;54.20;;;;;;5030271;28;20021;-73
2022/07/07 03:14:24;;;;;;;2.33;1.13;;;17.20;54.30;;;;;;5049995;28;20037;-73
2022/07/07 03:16:50;;;;;;;2.13;1.20;;;17.20;54.20;;;;;;5043367;28;20517;-73
2022/07/07 03:19:16;;;;;;;2.13;1.52;;;17.20;54.30;;;;;;4999600;28;20041;-73
2022/07/07 03:21:41;;;;;;;2.60;1.00;;;17.20;54.40;;;;;;5062176;28;20111;-75
2022/07/07 03:24:07;;;;;;;2.50;1.27;;;17.20;54.40;;;;;;5037325;28;20404;-74
2022/07/07 03:26:32;;;;;;;2.38;1.73;;;17.20;54.40;;;;;;5005325;28;20053;-74
2022/07/07 03:28:58;;;;;;;2.10;1.38;;;17.20;54.40;;;;;;5039637;28;20183;-73
2022/07/07 03:31:24;;;;;;;3.15;1.17;;;17.20;54.50;;;;;;4982433;28;20048;-72
2022/07/07 03:33:49;;;;;;;2.30;1.58;;;17.20;54.40;;;;;;5033023;28;20036;-71
2022/07/07 03:36:15;;;;;;;1.48;1.10;;;17.20;54.50;;;;;;5049322;28;20119;-72
2022/07/07 03:38:41;;;;;;;1.42;1.10;;;17.20;54.50;;;;;;5029882;28;20104;-73
2022/07/07 03:41:06;;;;;;;2.67;1.00;;;17.20;54.50;;;;;;5017352;28;20119;-73
2022/07/07 03:43:32;;;;;;;2.30;1.30;;;17.20;54.50;;;;;;5042456;28;20529;-73
2022/07/07 03:45:57;;;;;;;1.60;0.93;;;17.20;54.50;;;;;;5017668;28;20592;-73
2022/07/07 03:48:23;;;;;;;1.48;1.17;;;17.20;54.50;;;;;;5049776;28;20043;-73
2022/07/07 03:50:48;;;;;;;1.30;1.20;;;17.20;54.50;;;;;;5028074;28;20033;-74
2022/07/07 03:53:14;;;;;;;4.45;1.25;;;17.20;55.10;;;;;;5041943;28;20044;-73
2022/07/07 03:55:39;;;;;;;2.45;1.55;;;17.20;54.50;;;;;;5053602;28;20029;-73
2022/07/07 03:58:05;;;;;;;2.08;1.20;;;17.20;54.50;;;;;;5016503;28;20614;-71
2022/07/07 04:00:31;;;;;;;2.53;1.20;;;17.20;54.50;;;;;;5004790;28;20827;-73
2022/07/07 04:02:57;;;;;;;2.35;1.33;;;17.20;54.50;;;;;;5022626;28;20033;-71
2022/07/07 04:05:22;;;;;;;1.67;1.20;;;17.20;54.70;;;;;;5018664;28;20037;-72
2022/07/07 04:07:48;;;;;;;4.13;1.20;;;17.10;54.40;;;;;;5004005;28;20042;-72
2022/07/07 04:10:13;;;;;;;1.20;1.10;;;17.20;54.60;;;;;;5030061;28;20032;-71
2022/07/07 04:12:39;;;;;;;1.00;1.00;;;17.20;54.60;;;;;;5025731;28;20656;-72
2022/07/07 04:15:05;;;;;;;1.75;1.20;;;17.20;54.60;;;;;;5033022;28;20056;-72
2022/07/07 04:17:30;;;;;;;1.90;1.20;;;17.20;54.60;;;;;;5033408;28;20071;-72
2022/07/07 04:19:56;;;;;;;3.47;1.30;;;17.20;54.70;;;;;;5043188;28;20409;-73
2022/07/07 04:22:22;;;;;;;3.08;2.00;;;17.20;54.60;;;;;;5036783;28;20124;-74
2022/07/07 04:24:47;;;;;;;3.05;1.30;;;17.20;54.70;;;;;;5042509;28;20082;-73
2022/07/07 04:27:13;;;;;;;1.45;1.35;;;17.20;54.70;;;;;;5028988;28;20036;-73
2022/07/07 04:29:38;;;;;;;1.25;1.10;;;17.20;54.70;;;;;;5036477;28;20032;-73
2022/07/07 04:32:04;;;;;;;3.15;1.20;;;17.20;55.30;;;;;;5027610;28;20695;-73
2022/07/07 04:34:30;;;;;;;1.77;1.23;;;17.20;54.70;;;;;;5042512;28;20122;-73
2022/07/07 04:36:55;;;;;;;3.40;1.20;;;17.20;54.80;;;;;;5040435;28;20032;-73
2022/07/07 04:39:21;;;;;;;3.10;1.50;;;17.20;54.70;;;;;;5035535;28;20021;-73
2022/07/07 04:41:46;;;;;;;4.22;1.20;;;17.20;54.80;;;;;;5016677;28;20047;-73
2022/07/07 04:44:12;;;;;;;1.92;1.30;;;17.20;54.80;;;;;;5033986;28;20044;-73
2022/07/07 04:46:37;;;;;;;2.78;1.30;;;17.30;54.80;;;;;;5029044;28;20041;-72
2022/07/07 04:49:03;;;;;;;1.50;1.20;;;17.30;54.80;;;;;;5023205;28;20025;-72
2022/07/07 04:51:28;;;;;;;2.72;1.23;;;17.30;54.80;;;;;;5029409;28;20561;-73
2022/07/07 04:53:56;;;;;;;2.03;1.08;;;17.30;54.80;;;;;;5024109;28;20128;-73
2022/07/07 04:56:21;;;;;;;1.27;1.10;;;17.30;54.80;;;;;;5000706;28;20056;-73
2022/07/07 04:58:47;;;;;;;1.52;1.20;;;17.30;54.80;;;;;;5024028;28;20048;-73
2022/07/07 05:01:12;;;;;;;5.45;1.10;;;17.40;54.60;;;;;;5057390;28;20096;-72
2022/07/07 05:03:38;;;;;;;2.78;1.20;;;17.40;54.60;;;;;;5025740;28;20524;-73
2022/07/07 05:06:04;;;;;;;3.28;1.00;;;17.40;54.50;;;;;;5041531;28;20044;-72
2022/07/07 05:08:30;;;;;;;4.10;1.33;;;17.40;54.60;;;;;;5019723;28;20551;-73
2022/07/07 05:10:55;;;;;;;2.53;0.93;;;17.40;54.60;;;;;;5034714;28;20028;-73
2022/07/07 05:13:21;;;;;;;2.30;0.93;;;17.40;54.50;;;;;;5043433;28;20501;-73
2022/07/07 05:15:48;;;;;;;2.92;1.10;;;17.40;54.40;;;;;;5029316;28;20756;-73
2022/07/07 05:18:14;;;;;;;1.00;0.90;;;17.40;54.40;;;;;;5032708;28;20053;-73
2022/07/07 05:20:40;;;;;;;2.97;1.00;;;17.40;54.40;;;;;;5026223;28;20117;-73
2022/07/07 05:23:05;;;;;;;1.58;1.00;;;17.40;54.40;;;;;;5034166;28;20716;-73
2022/07/07 05:25:31;;;;;;;1.38;0.88;;;17.40;54.30;;;;;;5044166;28;20475;-72
2022/07/07 05:27:56;;;;;;;1.75;0.95;;;17.50;54.40;;;;;;5003267;28;20025;-72
2022/07/07 05:30:22;;;;;;;1.35;0.82;;;17.50;54.40;;;;;;5048520;28;20036;-72
2022/07/07 05:32:48;;;;;;;4.80;1.10;;;17.50;54.40;;;;;;5029352;28;20094;-72
2022/07/07 05:35:13;;;;;;;2.75;1.00;;;17.50;54.40;;;;;;5044888;28;20036;-72
2022/07/07 05:37:41;;;;;;;0.80;0.80;;;17.50;54.40;;;;;;5027183;28;20024;-72
2022/07/07 05:40:07;;;;;;;1.35;0.90;;;17.50;54.40;;;;;;5009546;28;20044;-72
2022/07/07 05:42:33;;;;;;;2.70;0.90;;;17.50;55.10;;;;;;5016338;28;20037;-72
2022/07/07 05:44:58;;;;;;;2.45;1.00;;;17.50;54.50;;;;;;5024649;28;20118;-73
2022/07/07 05:47:24;;;;;;;1.67;1.27;;;17.50;54.50;;;;;;5016323;28;20056;-72
2022/07/07 05:49:49;;;;;;;0.80;0.77;;;17.50;54.40;;;;;;5023745;28;20103;-73
2022/07/07 05:52:15;;;;;;;1.83;0.80;;;17.50;54.40;;;;;;5016864;28;20035;-73
2022/07/07 05:54:40;;;;;;;1.42;0.98;;;17.60;54.40;;;;;;5028229;28;20041;-73
2022/07/07 05:57:06;;;;;;;4.88;1.60;;;17.60;54.40;;;;;;5034901;28;20025;-73
2022/07/07 05:59:32;;;;;;;3.17;1.20;;;17.60;54.50;;;;;;5010054;28;20137;-73
2022/07/07 06:01:57;;;;;;;2.20;1.15;;;17.60;54.60;;;;;;5008885;28;20104;-73
2022/07/07 06:04:24;;;;;;;2.47;1.10;;;17.60;54.60;;;;;;5007184;28;20825;-73
2022/07/07 06:06:50;;;;;;;2.80;1.10;;;17.60;54.60;;;;;;4993677;28;20086;-72
2022/07/07 06:09:16;;;;;;;0.90;0.88;;;17.70;54.60;;;;;;5039366;28;20041;-73
2022/07/07 06:11:41;;;;;;;3.03;0.95;;;17.70;54.60;;;;;;5005913;28;20056;-73
2022/07/07 06:14:07;;;;;;;2.22;1.38;;;17.70;54.60;;;;;;5023302;28;20037;-72
2022/07/07 06:16:41;;;;;;;3.97;1.00;;;17.70;54.70;;;;;;5020269;28;20029;-73
2022/07/07 06:19:08;;;;;;;3.65;1.00;;;17.80;54.70;;;;;;4992889;28;20110;-72
2022/07/07 06:21:34;;;;;;;6.03;1.20;;;17.80;54.60;;;;;;4990002;28;20128;-73
2022/07/07 06:23:59;;;;;;;5.47;1.20;;;17.80;54.50;;;;;;5004905;28;20064;-73
2022/07/07 06:26:25;;;;;;;3.53;1.10;;;17.90;54.60;;;;;;5043849;28;20033;-72
2022/07/07 06:28:51;;;;;;;1.88;1.00;;;17.90;54.50;;;;;;5024743;28;20033;-72
2022/07/07 06:31:17;;;;;;;2.08;1.00;;;17.90;54.40;;;;;;5028051;28;20680;-72
2022/07/07 06:33:42;;;;;;;6.55;1.08;;;18.00;54.40;;;;;;5019764;28;20051;-73
2022/07/07 06:36:08;;;;;;;2.50;0.80;;;18.00;54.40;;;;;;5005170;28;20037;-73
2022/07/07 06:38:33;;;;;;;1.27;0.80;;;18.00;54.30;;;;;;5033774;28;20033;-73
2022/07/07 06:40:59;;;;;;;4.60;1.23;;;18.10;54.30;;;;;;5002363;28;20107;-73
2022/07/07 06:43:25;;;;;;;1.98;0.90;;;18.10;54.20;;;;;;5017465;28;20072;-74
2022/07/07 06:45:50;;;;;;;3.00;1.25;;;18.20;54.20;;;;;;5028254;28;20041;-73
2022/07/07 06:48:16;;;;;;;2.15;1.27;;;18.20;54.10;;;;;;5011258;28;20037;-73
2022/07/07 06:50:42;;;;;;;5.60;1.30;;;18.30;54.10;;;;;;5045760;28;20041;-74
2022/07/07 06:53:07;;;;;;;5.03;1.10;;;18.30;54.00;;;;;;5003958;28;20103;-73
2022/07/07 06:55:33;;;;;;;1.73;1.10;;;18.30;54.00;;;;;;5013064;28;20041;-73
2022/07/07 06:57:58;;;;;;;1.45;1.02;;;18.40;53.90;;;;;;5041971;28;20074;-73
2022/07/07 07:00:24;;;;;;;5.18;1.10;;;18.40;53.90;;;;;;5010954;28;20113;-73
2022/07/07 07:02:49;;;;;;;4.32;1.02;;;18.40;53.80;;;;;;5000367;28;20542;-73
2022/07/07 07:05:15;;;;;;;2.28;0.95;;;18.40;53.80;;;;;;4995903;28;20470;-74
2022/07/07 07:07:41;;;;;;;2.28;1.20;;;18.50;53.70;;;;;;5016796;28;20036;-72
2022/07/07 07:10:07;;;;;;;2.97;1.40;;;18.50;53.70;;;;;;5006317;28;20037;-72
2022/07/07 07:12:33;;;;;;;3.20;0.90;;;18.50;53.70;;;;;;5022125;28;20042;-73
2022/07/07 07:14:58;;;;;;;1.45;1.30;;;18.60;53.70;;;;;;5021151;28;20037;-73
2022/07/07 07:17:24;;;;;;;4.88;1.42;;;18.70;53.70;;;;;;5011720;28;20547;-72
2022/07/07 07:19:50;;;;;;;6.07;1.38;;;18.70;53.70;;;;;;5017606;28;20033;-73
2022/07/07 07:22:15;;;;;;;2.42;1.15;;;18.80;53.60;;;;;;4986719;28;20107;-72
2022/07/07 07:24:41;;;;;;;2.30;1.10;;;18.80;53.50;;;;;;4996958;28;20482;-72
2022/07/07 07:27:07;;;;;;;1.85;1.20;;;18.90;53.50;;;;;;5015771;28;20544;-72
2022/07/07 07:29:32;;;;;;;2.80;1.02;;;18.90;53.40;;;;;;5027763;28;20033;-73
2022/07/07 07:31:58;;;;;;;4.35;1.27;;;19.00;53.30;;;;;;4993974;28;20033;-72
2022/07/07 07:34:23;;;;;;;5.45;1.40;;;19.00;53.30;;;;;;4999732;28;20037;-74
2022/07/07 07:36:49;;;;;;;3.75;1.00;;;19.00;53.30;;;;;;4993883;28;20072;-73
2022/07/07 07:39:14;;;;;;;2.45;1.20;;;19.00;53.20;;;;;;5031858;28;20033;-75
2022/07/07 07:41:40;;;;;;;3.47;1.33;;;19.10;53.30;;;;;;5006374;28;20104;-73
2022/07/07 07:44:06;;;;;;;3.53;1.23;;;19.10;53.60;;;;;;4996648;28;20045;-74
2022/07/07 07:46:31;;;;;;;6.70;1.35;;;19.10;53.80;;;;;;5049841;28;20717;-74
2022/07/07 07:48:58;;;;;;;5.35;1.20;;;19.10;54.10;;;;;;5042421;28;20071;-73
2022/07/07 07:51:24;;;;;;;2.47;1.55;;;19.10;54.30;;;;;;5034342;28;20029;-74
2022/07/07 07:53:49;;;;;;;1.75;1.02;;;19.10;54.50;;;;;;5028434;28;20437;-73
2022/07/07 07:56:15;;;;;;;4.45;1.77;;;19.20;54.80;;;;;;5005198;28;20599;-74
2022/07/07 07:58:40;;;;;;;3.40;1.08;;;19.20;54.90;;;;;;5039653;28;20033;-74
2022/07/07 08:01:06;;;;;;;6.50;1.52;;;19.20;55.20;;;;;;5034217;28;20054;-73
2022/07/07 08:03:31;;;;;;;4.00;1.40;;;19.30;55.30;;;;;;5030598;28;20068;-74
2022/07/07 08:05:57;;;;;;;3.70;1.35;;;19.40;55.30;;;;;;5044750;28;20116;-73
2022/07/07 08:08:22;;;;;;;1.90;1.20;;;19.40;55.40;;;;;;5059407;28;20119;-74
2022/07/07 08:10:48;;;;;;;3.22;1.20;;;19.50;55.50;;;;;;5030783;28;20028;-74
2022/07/07 08:13:14;;;;;;;1.38;0.93;;;19.50;55.60;;;;;;5050080;28;20033;-74
2022/07/07 08:15:48;;;;;;;3.88;1.65;;;19.60;55.70;;;;;;5015547;28;20398;-73
2022/07/07 08:18:13;;;;;;;4.32;1.65;;;19.70;56.50;;;;;;4994822;28;20029;-73
2022/07/07 08:20:39;;;;;;;1.50;1.40;;;19.70;55.80;;;;;;4980039;28;20031;-72
2022/07/07 08:23:04;;;;;;;3.47;1.02;;;19.80;56.60;;;;;;4985038;28;20555;-73
2022/07/07 08:25:30;;;;;;;3.15;1.23;;;19.90;56.00;;;;;;4989534;28;20398;-73
2022/07/07 08:27:56;;;;;;;1.73;1.30;;;20.00;56.10;;;;;;4964742;28;20049;-72
2022/07/07 08:30:21;;;;;;;3.45;1.10;;;20.10;56.00;;;;;;4957983;28;20062;-73
2022/07/07 08:32:47;;;;;;;2.35;1.27;;;20.20;56.10;;;;;;4981712;28;20023;-73
2022/07/07 08:35:13;;;;;;;2.92;1.17;;;20.30;56.10;;;;;;4969407;28;20042;-72
2022/07/07 08:37:39;;;;;;;5.35;1.25;;;20.50;55.90;;;;;;4959691;28;20277;-73
2022/07/07 08:40:05;;;;;;;3.13;1.00;;;20.60;55.80;;;;;;4971926;28;20542;-73
2022/07/07 08:42:30;;;;;;;5.03;1.40;;;20.70;55.60;;;;;;4973726;28;20041;-73
2022/07/07 08:44:56;;;;;;;31.25;4.30;;;20.80;55.50;;;;;;4979981;28;20494;-74
2022/07/07 08:47:21;;;;;;;4.53;1.52;;;20.90;55.40;;;;;;4966283;28;20042;-74
2022/07/07 08:49:47;;;;;;;5.43;1.60;;;21.00;55.30;;;;;;4992190;28;20035;-74
2022/07/07 08:52:13;;;;;;;4.22;1.17;;;21.10;55.10;;;;;;4968481;28;20133;-74
2022/07/07 08:54:39;;;;;;;2.13;1.38;;;21.20;55.00;;;;;;4945919;28;20132;-73
2022/07/07 08:57:05;;;;;;;2.60;1.33;;;21.30;55.00;;;;;;4980760;28;20100;-73
2022/07/07 08:59:31;;;;;;;2.97;1.05;;;21.40;54.90;;;;;;4979536;28;20102;-73
2022/07/07 09:02:00;;;;;;;3.58;1.17;;;21.40;54.70;;;;;;4967479;28;20035;-73
2022/07/07 09:04:26;;;;;;;3.80;1.20;;;21.50;54.60;;;;;;4960668;28;20472;-73
2022/07/07 09:07:04;;;;;;;5.32;1.40;;;21.50;54.40;;;;;;4986729;28;20081;-73
2022/07/07 09:09:36;;;;;;;3.72;1.20;;;21.60;54.60;;;;;;4959603;28;20541;-74
2022/07/07 09:12:01;;;;;;;;;;;21.60;54.60;;;;;;4964436;28;20038;-74
2022/07/07 09:14:37;;;;;;;5.78;1.38;;;21.60;54.50;;;;;;4964799;28;20172;-73
2022/07/07 09:17:03;;;;;;;29.33;3.60;;;21.60;54.50;;;;;;4948001;28;20477;-73
2022/07/07 09:19:28;;;;;;;4.20;1.05;;;21.70;54.50;;;;;;4964675;28;20039;-73
2022/07/07 09:21:54;;;;;;;3.13;1.30;;;21.70;54.40;;;;;;4970384;28;20376;-73
2022/07/07 09:24:19;;;;;;;3.63;1.23;;;21.80;54.40;;;;;;4992326;28;20030;-72
2022/07/07 09:26:48;;;;;;;4.45;1.20;;;21.80;54.40;;;;;;4948739;28;20043;-73
2022/07/07 09:29:18;;;;;;;1.60;1.20;;;21.90;54.30;;;;;;4932654;28;20038;-74
2022/07/07 09:32:04;;;;;;;3.83;1.10;;;21.90;54.30;;;;;;4976352;28;20046;-73
2022/07/07 09:34:36;;;;;;;5.35;1.48;;;21.90;54.30;;;;;;4951540;28;20043;-72
2022/07/07 09:39:48;;;;;;;3.60;1.40;;;21.90;54.10;;;;;;4951057;28;20043;-73
2022/07/07 09:42:17;;;;;;;2.13;1.25;;;21.90;54.10;;;;;;4962409;28;20035;-73
2022/07/07 09:44:42;;;;;;;7.90;1.02;;;21.90;54.10;;;;;;4957035;28;20042;-73
2022/07/07 09:47:09;;;;;;;2.15;1.40;;;21.90;54.10;;;;;;4938320;28;20191;-73
2022/07/07 09:49:40;;;;;;;1.92;1.10;;;21.80;54.10;;;;;;4962239;28;20050;-73
2022/07/07 09:52:18;;;;;;;;;;;21.90;54.20;;;;;;4932775;28;20035;-74
2022/07/07 09:54:48;;;;;;;1.30;1.20;;;21.90;54.20;;;;;;4934962;28;19989;-73
2022/07/07 09:57:14;;;;;;;1.83;1.25;;;21.90;54.10;;;;;;4949780;28;20543;-73
2022/07/07 09:59:41;;;;;;;5.53;1.20;;;22.00;54.40;;;;;;4947959;28;20109;-73
2022/07/07 10:02:27;;;;;;;2.72;1.10;;;22.00;54.30;;;;;;4934456;28;20743;-73
2022/07/07 10:04:54;;;;;;;2.35;1.10;;;22.00;54.40;;;;;;4957075;28;20041;-74
2022/07/07 10:07:23;;;;;;;3.17;1.30;;;21.90;54.20;;;;;;4970451;28;20038;-73
2022/07/07 10:09:50;;;;;;;3.28;1.60;;;21.90;54.30;;;;;;4967301;28;20560;-73
2022/07/07 10:12:16;;;;;;;1.88;1.13;;;21.90;54.30;;;;;;4948813;28;20038;-73
2022/07/07 10:14:43;;;;;;;3.63;1.40;;;21.90;54.30;;;;;;4965721;28;20051;-73
2022/07/07 10:17:09;;;;;;;3.42;1.17;;;21.80;54.40;;;;;;4939928;28;20158;-72
2022/07/07 10:19:35;;;;;;;1.23;1.13;;;21.80;54.50;;;;;;4967574;28;20059;-74
2022/07/07 10:22:00;;;;;;;4.10;1.08;;;21.80;54.50;;;;;;4963173;28;20571;-73
2022/07/07 10:24:27;;;;;;;1.15;1.00;;;21.80;54.60;;;;;;4941315;28;20195;-73
2022/07/07 10:26:55;;;;;;;3.60;1.35;;;21.80;54.60;;;;;;4948727;28;20404;-72
2022/07/07 10:29:45;;;;;;;1.58;1.20;;;21.80;54.60;;;;;;4952524;28;20050;-72
2022/07/07 10:32:18;;;;;;;1.50;1.40;;;21.70;54.90;;;;;;4953154;28;20653;-72
2022/07/07 10:34:53;;;;;;;4.28;1.25;;;21.70;54.80;;;;;;4941872;28;20555;-72
2022/07/07 10:37:20;;;;;;;7.55;1.70;;;21.80;55.30;;;;;;4950597;28;20047;-73
2022/07/07 10:39:47;;;;;;;2.50;1.38;;;21.70;55.20;;;;;;4941000;28;20122;-72
2022/07/07 10:42:37;;;;;;;2.42;1.45;;;21.70;55.50;;;;;;4954200;28;20100;-72
2022/07/07 10:45:02;;;;;;;3.05;1.50;;;21.70;56.00;;;;;;4940654;28;20042;-73
2022/07/07 10:47:29;;;;;;;1.80;1.50;;;21.60;56.10;;;;;;4949704;28;20054;-72
2022/07/07 10:49:55;;;;;;;2.00;1.42;;;21.50;56.50;;;;;;4977697;28;20038;-72
2022/07/07 10:52:24;;;;;;;2.78;1.50;;;21.50;56.80;;;;;;4930653;28;20435;-73
2022/07/07 10:54:51;;;;;;;2.97;1.45;;;21.40;57.00;;;;;;4937210;28;20424;-73
2022/07/07 10:57:21;;;;;;;2.55;1.50;;;21.40;57.20;;;;;;4951912;28;20117;-72
2022/07/07 11:00:06;;;;;;;5.22;1.45;;;21.40;57.50;;;;;;4938723;28;20035;-72
2022/07/07 11:02:39;;;;;;;3.30;1.60;;;21.40;58.50;;;;;;4934558;28;20035;-72
2022/07/07 11:05:14;;;;;;;3.95;1.70;;;21.30;58.00;;;;;;4967669;28;20046;-72
2022/07/07 11:07:55;;;;;;;3.95;1.45;;;21.30;58.90;;;;;;4946205;28;20081;-72
2022/07/07 11:10:20;;;;;;;3.90;1.33;;;21.30;58.90;;;;;;4943101;28;20046;-71
2022/07/07 11:12:53;;;;;;;1.92;1.27;;;21.20;58.60;;;;;;4934561;28;20038;-72
2022/07/07 11:15:21;;;;;;;3.50;1.40;;;21.30;59.10;;;;;;4933229;28;20129;-72
2022/07/07 11:17:48;;;;;;;1.65;1.20;;;21.20;59.20;;;;;;4939090;28;20121;-72
2022/07/07 11:20:17;;;;;;;1.30;1.10;;;21.20;59.40;;;;;;4939407;28;20065;-72
2022/07/07 11:22:43;;;;;;;1.10;0.88;;;21.20;59.60;;;;;;4936098;28;20122;-72
2022/07/07 11:25:10;;;;;;;2.50;1.30;;;21.20;59.80;;;;;;4945031;28;20066;-72
2022/07/07 11:27:36;;;;;;;1.25;0.93;;;21.20;60.00;;;;;;4951835;28;20039;-72
2022/07/07 11:30:03;;;;;;;1.17;0.77;;;21.10;60.00;;;;;;4954419;28;20031;-72
2022/07/07 11:32:39;;;;;;;1.08;0.65;;;21.20;60.40;;;;;;4944467;28;20498;-72
2022/07/07 11:35:11;;;;;;;1.17;0.90;;;21.20;61.10;;;;;;4937647;28;20134;-72
2022/07/07 11:37:42;;;;;;;3.08;0.90;;;21.30;60.70;;;;;;4937436;28;20154;-72
2022/07/07 11:40:13;;;;;;;2.58;0.70;;;21.30;60.80;;;;;;4947743;28;20034;-72
2022/07/07 11:42:39;;;;;;;;;;;21.40;60.90;;;;;;4956501;28;20102;-72
2022/07/07 11:45:17;;;;;;;1.95;0.82;;;21.40;60.50;;;;;;4943535;28;19922;-72
2022/07/07 11:47:43;;;;;;;0.57;0.57;;;21.50;60.40;;;;;;4939721;28;20045;-72
2022/07/07 11:50:09;;;;;;;0.60;0.60;;;21.60;60.70;;;;;;4962207;28;20129;-72
2022/07/07 11:52:34;;;;;;;0.40;0.40;;;21.90;60.60;;;;;;4940146;28;20077;-72
2022/07/07 11:55:01;;;;;;;0.50;0.50;;;22.00;60.30;;;;;;4942336;28;20039;-72
2022/07/07 11:57:32;;;;;;;1.85;0.73;;;22.20;60.20;;;;;;4927756;28;20038;-73
2022/07/07 12:00:21;;;;;;;0.70;0.50;;;22.40;60.40;;;;;;4942832;28;20035;-72
2022/07/07 12:02:49;;;;;;;1.55;0.60;;;22.70;60.10;;;;;;4936401;28;20117;-73
2022/07/07 12:05:22;;;;;;;0.93;0.60;;;22.80;59.30;;;;;;4956521;28;20034;-73
2022/07/07 12:07:56;;;;;;;2.17;0.80;;;23.00;59.20;;;;;;4946274;28;20504;-72
2022/07/07 12:10:25;;;;;;;3.80;0.70;;;23.10;58.80;;;;;;4947123;28;20030;-72
2022/07/07 12:13:12;;;;;;;1.75;0.60;;;23.20;58.30;;;;;;4940375;28;20047;-72
2022/07/07 12:15:39;;;;;;;1.27;0.45;;;23.30;58.10;;;;;;4938549;28;20043;-72
2022/07/07 12:18:05;;;;;;;1.20;1.00;;;23.40;57.90;;;;;;4952057;28;20122;-72
2022/07/07 12:20:31;;;;;;;0.57;0.57;;;23.40;57.70;;;;;;4946053;28;20035;-72
2022/07/07 12:22:58;;;;;;;0.80;0.80;;;23.40;57.60;;;;;;4961879;28;20113;-72
2022/07/07 12:25:24;;;;;;;1.92;0.65;;;23.40;57.40;;;;;;4967060;28;20531;-73
2022/07/07 12:28:00;;;;;;;3.15;1.00;;;23.40;57.40;;;;;;4963839;28;20043;-71
2022/07/07 12:30:27;;;;;;;6.32;1.17;;;23.30;57.70;;;;;;4941368;28;20123;-72
2022/07/07 12:32:53;;;;;;;1.75;1.08;;;23.30;57.80;;;;;;4941682;28;20050;-72
2022/07/07 12:35:34;;;;;;;4.10;1.10;;;23.20;58.10;;;;;;4965525;28;20039;-72
2022/07/07 12:38:00;;;;;;;1.67;1.10;;;23.10;58.60;;;;;;4973467;28;20049;-72
2022/07/07 12:40:27;;;;;;;1.17;0.70;;;23.10;58.60;;;;;;4954626;28;20042;-71
2022/07/07 12:42:53;;;;;;;1.23;0.70;;;23.00;58.90;;;;;;4905323;28;20128;-71
2022/07/07 12:45:19;;;;;;;1.10;0.60;;;23.00;59.00;;;;;;4927722;28;20038;-71
2022/07/07 12:47:45;;;;;;;0.60;0.52;;;23.00;59.00;;;;;;4921668;28;20026;-71
2022/07/07 12:50:10;;;;;;;1.00;0.63;;;22.90;59.60;;;;;;4934604;28;20091;-71